This is the latest recevied weather packets stored in our database for station/object K5GTX. If no packets are shown the sender has not sent any weather packets the latest 10 day(s).
| Time | Temp. | Humidity | Pressure | Rain* | Wind** | Luminosity | Snow |
|---|---|---|---|---|---|---|---|
| 1777942319 | 25° C | 99% | 1012.1 hPa | 0 mm | - | 7 W/m² | - |
| 1777942016 | 25° C | 99% | 1012.2 hPa | 0 mm | - | 10 W/m² | - |
| 1777941713 | 25° C | 99% | 1012 hPa | 0 mm | - | 16 W/m² | - |
| 1777941410 | 25° C | 99% | 1012.4 hPa | 0 mm | - | 23 W/m² | - |
| 1777941108 | 25° C | 99% | 1012.4 hPa | 0 mm | - | 27 W/m² | - |
| 1777940804 | 25.56° C | 99% | 1012.2 hPa | 0 mm | - | 32 W/m² | - |
| 1777940502 | 25.56° C | 99% | 1012.4 hPa | 0 mm | - | 34 W/m² | - |
| 1777940198 | 25.56° C | 99% | 1012.4 hPa | 0 mm | - | 43 W/m² | - |
| 1777939896 | 25.56° C | 99% | 1012.5 hPa | 0 mm | - | 59 W/m² | - |
| 1777939593 | 26.11° C | 99% | 1012.5 hPa | 0 mm | - | 83 W/m² | - |
| 1777939291 | 26.11° C | 99% | 1012.4 hPa | 0 mm | - | 89 W/m² | - |
| 1777938987 | 26.11° C | 99% | 1012.5 hPa | 0 mm | - | 117 W/m² | - |
| 1777938684 | 26.11° C | 99% | 1012.4 hPa | 0 mm | - | 110 W/m² | - |
| 1777938381 | 26.11° C | 99% | 1012.4 hPa | 0 mm | - | 130 W/m² | - |
| 1777938078 | 26.11° C | 99% | 1012.6 hPa | 0 mm | - | 108 W/m² | - |
| 1777937774 | 26.11° C | 99% | 1012.6 hPa | 0 mm | - | 93 W/m² | - |
| 1777937470 | 26.11° C | 99% | 1012.5 hPa | 0 mm | - | 91 W/m² | - |
| 1777937167 | 26.11° C | 99% | 1012.6 hPa | 0 mm | - | 93 W/m² | - |
| 1777936865 | 26.11° C | 99% | 1012.6 hPa | 0 mm | - | 102 W/m² | - |
| 1777936561 | 26.11° C | 99% | 1012.7 hPa | 0 mm | - | 44 W/m² | - |
| 1777936257 | 26.67° C | 99% | 1012.7 hPa | 0 mm | - | 137 W/m² | - |
| 1777935953 | 26.67° C | 99% | 1013 hPa | 0 mm | - | 100 W/m² | - |
| 1777935653 | 27.22° C | 99% | 1012.9 hPa | 202.69 mm | - | 229 W/m² | - |
| 1777935349 | 27.78° C | 99% | 1012.7 hPa | 202.69 mm | - | 263 W/m² | - |
| 1777935046 | 27.22° C | 99% | 1013 hPa | 0 mm | - | 301 W/m² | - |
* Rain latest hour (hover to see other rain measurements)
** Current wind speed in m/s (hover to see current wind gust speed)